Time;durP1;ratioP1;P1;durP2;ratioP2;P2;SDS_P1;SDS_P2;PMS_P1;PMS_P2;Temp;Humidity;BMP_temperature;BMP_pressure;BME280_temperature;BME280_humidity;BME280_pressure;Samples;Min_cycle;Max_cycle;Signal;HPM_P1;HPM_P2
2022/06/12 00:00:21;;;;;;;27.47;12.90;;;15.70;99.90;;;;;;5053129;28;20786;-67
2022/06/12 00:02:48;;;;;;;15.70;12.03;;;15.60;99.90;;;;;;5059400;28;20462;-67
2022/06/12 00:05:18;;;;;;;14.53;12.50;;;15.50;99.90;;;;;;5059583;28;20499;-66
2022/06/12 00:07:46;;;;;;;13.60;12.17;;;15.30;99.90;;;;;;5056847;28;20467;-67
2022/06/12 00:10:14;;;;;;;15.67;11.70;;;15.30;99.90;;;;;;5051470;28;20980;-66
2022/06/12 00:12:44;;;;;;;18.63;12.20;;;15.30;99.90;;;;;;5057030;28;20475;-67
2022/06/12 00:15:14;;;;;;;22.30;13.47;;;15.30;99.90;;;;;;5054627;28;20573;-66
2022/06/12 00:17:43;;;;;;;19.33;13.10;;;15.20;99.90;;;;;;5060765;28;20491;-67
2022/06/12 00:20:13;;;;;;;17.77;12.20;;;15.00;99.90;;;;;;5053955;28;20490;-66
2022/06/12 00:22:40;;;;;;;29.47;13.47;;;15.00;99.90;;;;;;5050728;28;20832;-67
2022/06/12 00:25:12;;;;;;;16.50;13.37;;;14.90;99.90;;;;;;5052129;28;20483;-66
2022/06/12 00:27:39;;;;;;;15.90;12.80;;;14.80;99.90;;;;;;5056035;28;20468;-67
2022/06/12 00:30:10;;;;;;;15.57;13.93;;;14.70;99.90;;;;;;5058527;28;20465;-66
2022/06/12 00:32:38;;;;;;;15.20;13.60;;;14.60;99.90;;;;;;5052414;28;20467;-66
2022/06/12 00:35:07;;;;;;;24.63;14.30;;;14.50;99.90;;;;;;5049805;28;20479;-67
2022/06/12 00:37:35;;;;;;;15.27;13.50;;;14.40;99.90;;;;;;5053419;28;20463;-67
2022/06/12 00:40:04;;;;;;;19.87;15.57;;;14.40;99.90;;;;;;5056665;28;20462;-67
2022/06/12 00:42:36;;;;;;;21.10;13.90;;;14.30;99.90;;;;;;5052026;28;20487;-66
2022/06/12 00:45:39;;;;;;;15.37;13.83;;;14.30;99.90;;;;;;5049668;28;20460;-66
2022/06/12 00:48:09;;;;;;;20.73;13.60;;;14.20;99.90;;;;;;5059354;28;20485;-66
2022/06/12 00:50:40;;;;;;;15.97;13.70;;;14.10;99.90;;;;;;5048654;28;20456;-67
2022/06/12 00:53:12;;;;;;;16.50;13.70;;;14.00;99.90;;;;;;5055230;28;20823;-66
2022/06/12 00:55:44;;;;;;;15.23;13.70;;;13.90;99.90;;;;;;5057331;28;20899;-66
2022/06/12 00:58:13;;;;;;;16.27;14.53;;;13.90;99.90;;;;;;5055508;28;20509;-67
2022/06/12 01:00:43;;;;;;;28.43;15.43;;;13.90;99.90;;;;;;5058015;28;20470;-67
2022/06/12 01:03:11;;;;;;;16.43;13.30;;;13.90;99.90;;;;;;5055909;28;20470;-66
2022/06/12 01:08:24;;;;;;;22.90;14.87;;;13.70;99.90;;;;;;5055159;28;20494;-67
2022/06/12 01:10:57;;;;;;;20.27;13.80;;;13.60;99.90;;;;;;5053894;28;20472;-67
2022/06/12 01:13:28;;;;;;;22.10;14.40;;;13.60;99.90;;;;;;5058268;28;20827;-66
2022/06/12 01:16:02;;;;;;;20.93;15.57;;;13.50;99.90;;;;;;5053755;28;20501;-66
2022/06/12 01:18:34;;;;;;;15.47;13.83;;;13.60;99.90;;;;;;5054248;28;20466;-66
2022/06/12 01:21:12;;;;;;;18.03;14.53;;;13.40;99.90;;;;;;5056688;28;20934;-66
2022/06/12 01:24:10;;;;;;;14.43;13.10;;;13.30;99.90;;;;;;5057856;28;20466;-67
2022/06/12 01:27:02;;;;;;;17.27;15.10;;;13.30;99.90;;;;;;5055396;28;20880;-66
2022/06/12 01:29:35;;;;;;;15.57;13.97;;;13.20;99.90;;;;;;5052090;28;20487;-66
2022/06/12 01:32:07;;;;;;;16.90;15.10;;;13.20;99.90;;;;;;5055900;28;20456;-67
2022/06/12 01:34:45;;;;;;;16.47;14.80;;;13.10;99.90;;;;;;5051899;28;20471;-66
2022/06/12 01:37:28;;;;;;;22.23;14.60;;;13.00;99.90;;;;;;5055117;28;20487;-67
2022/06/12 01:40:05;;;;;;;17.67;14.30;;;13.10;99.90;;;;;;5056024;28;20463;-66
2022/06/12 01:42:38;;;;;;;14.73;13.20;;;12.90;99.90;;;;;;5055505;28;20825;-66
2022/06/12 01:45:15;;;;;;;15.37;13.90;;;12.90;99.90;;;;;;5055121;28;20980;-66
2022/06/12 01:47:50;;;;;;;18.00;13.53;;;12.70;99.90;;;;;;5052590;28;20462;-66
2022/06/12 01:50:22;;;;;;;17.13;13.03;;;12.70;99.90;;;;;;5056858;28;20969;-66
2022/06/12 01:52:58;;;;;;;14.97;13.57;;;12.80;99.90;;;;;;5055459;28;20452;-67
2022/06/12 01:55:35;;;;;;;23.50;12.83;;;12.60;99.90;;;;;;5056539;28;20465;-66
2022/06/12 01:58:09;;;;;;;17.33;15.67;;;12.50;99.90;;;;;;5052824;28;21028;-66
2022/06/12 02:00:41;;;;;;;17.73;15.20;;;12.40;99.90;;;;;;5050515;28;20464;-67
2022/06/12 02:03:12;;;;;;;21.83;16.83;;;12.40;99.90;;;;;;5053694;28;20839;-67
2022/06/12 02:05:46;;;;;;;16.53;14.97;;;12.40;99.90;;;;;;5058393;28;20464;-66
2022/06/12 02:08:19;;;;;;;19.00;14.80;;;12.30;99.90;;;;;;5051372;28;20587;-67
2022/06/12 02:10:50;;;;;;;30.60;15.10;;;12.30;99.90;;;;;;5054219;28;20464;-66
2022/06/12 02:13:23;;;;;;;19.10;15.83;;;12.20;99.90;;;;;;5057279;28;20474;-66
2022/06/12 02:15:54;;;;;;;19.00;14.67;;;12.20;99.90;;;;;;5051311;28;20496;-66
2022/06/12 02:18:29;;;;;;;23.63;15.30;;;12.10;99.90;;;;;;5047464;28;20461;-66
2022/06/12 02:21:02;;;;;;;22.07;15.53;;;12.00;99.90;;;;;;5054918;28;20495;-66
2022/06/12 02:23:35;;;;;;;19.40;15.60;;;11.90;99.90;;;;;;5054162;28;20459;-66
2022/06/12 02:26:03;;;;;;;20.40;16.20;;;11.90;99.90;;;;;;5056586;28;20462;-66
2022/06/12 02:28:37;;;;;;;21.50;17.27;;;11.80;99.90;;;;;;5054543;28;20466;-66
2022/06/12 02:31:11;;;;;;;17.57;15.93;;;11.90;99.90;;;;;;5053777;28;20468;-65
2022/06/12 02:33:42;;;;;;;21.90;16.53;;;12.00;99.90;;;;;;5055481;28;20463;-66
2022/06/12 02:36:14;;;;;;;23.03;16.90;;;12.00;99.90;;;;;;5054379;28;20486;-66
2022/06/12 02:38:44;;;;;;;25.50;17.40;;;11.90;99.90;;;;;;5052988;28;20491;-66
2022/06/12 02:41:18;;;;;;;23.13;16.60;;;11.90;99.90;;;;;;5055653;28;20464;-66
2022/06/12 02:43:48;;;;;;;18.20;16.63;;;11.80;99.90;;;;;;5053692;28;20460;-66
2022/06/12 02:46:20;;;;;;;18.40;16.50;;;11.80;99.90;;;;;;5062239;28;20475;-67
2022/06/12 02:48:48;;;;;;;24.00;17.80;;;11.80;99.90;;;;;;5048293;28;20468;-66
2022/06/12 02:51:25;;;;;;;18.53;16.40;;;11.70;99.90;;;;;;5056871;28;20479;-65
2022/06/12 02:54:04;;;;;;;21.27;16.20;;;11.60;99.90;;;;;;5053860;28;20878;-66
2022/06/12 02:56:41;;;;;;;23.00;19.77;;;11.60;99.90;;;;;;5057157;28;20495;-66
2022/06/12 02:59:20;;;;;;;19.03;17.60;;;11.60;99.90;;;;;;5051600;28;20454;-66
2022/06/12 03:01:54;;;;;;;17.20;15.70;;;11.50;99.90;;;;;;5054601;28;20459;-65
2022/06/12 03:04:26;;;;;;;24.57;18.23;;;11.50;99.90;;;;;;5047116;28;20456;-66
2022/06/12 03:06:53;;;;;;;18.83;17.37;;;11.50;99.90;;;;;;5054185;28;20479;-65
2022/06/12 03:09:21;;;;;;;19.77;17.60;;;11.50;99.90;;;;;;5047980;28;20697;-66
2022/06/12 03:11:49;;;;;;;18.27;16.60;;;11.60;99.90;;;;;;5053834;28;20455;-66
2022/06/12 03:14:21;;;;;;;19.07;17.47;;;11.70;99.90;;;;;;5056982;28;20533;-65
2022/06/12 03:16:50;;;;;;;19.00;17.17;;;11.80;99.90;;;;;;5060888;28;20909;-65
2022/06/12 03:19:23;;;;;;;28.37;18.03;;;11.90;99.90;;;;;;5056259;28;20474;-66
2022/06/12 03:21:58;;;;;;;22.80;18.57;;;11.90;99.90;;;;;;5061775;28;20470;-65
2022/06/12 03:24:37;;;;;;;32.77;18.30;;;12.00;99.90;;;;;;5062362;28;20465;-66
2022/06/12 03:27:20;;;;;;;20.53;17.00;;;12.10;99.90;;;;;;5058167;28;20494;-66
2022/06/12 03:29:54;;;;;;;18.67;16.60;;;12.00;99.90;;;;;;5060021;28;20861;-66
2022/06/12 03:32:29;;;;;;;18.90;16.97;;;11.90;99.90;;;;;;5057046;28;20470;-66
2022/06/12 03:35:05;;;;;;;20.50;18.57;;;12.00;99.90;;;;;;5054456;28;20557;-66
2022/06/12 03:37:38;;;;;;;18.87;17.10;;;12.00;99.90;;;;;;5062244;28;20490;-66
2022/06/12 03:40:13;;;;;;;21.47;16.27;;;12.00;99.90;;;;;;5061681;28;20466;-66
2022/06/12 03:42:48;;;;;;;20.67;18.77;;;12.00;99.90;;;;;;5058105;28;20470;-67
2022/06/12 03:45:22;;;;;;;21.87;18.37;;;11.90;99.90;;;;;;5059169;28;20968;-66
2022/06/12 03:47:54;;;;;;;20.03;18.07;;;11.90;99.90;;;;;;5060575;28;20957;-65
2022/06/12 03:50:29;;;;;;;18.83;16.90;;;11.90;99.90;;;;;;5056074;28;20468;-66
2022/06/12 03:53:06;;;;;;;19.23;17.40;;;11.90;99.90;;;;;;5055986;28;20459;-67
2022/06/12 03:58:26;;;;;;;21.20;17.53;;;11.80;99.90;;;;;;5036451;28;20973;-65
2022/06/12 04:00:55;;;;;;;27.00;22.33;;;11.80;99.90;;;;;;5056069;28;20958;-66
2022/06/12 04:03:27;;;;;;;20.33;18.20;;;11.90;99.90;;;;;;5034849;28;20459;-66
2022/06/12 04:05:57;;;;;;;21.60;18.03;;;12.00;99.90;;;;;;5032040;28;20961;-66
2022/06/12 04:08:28;;;;;;;19.33;16.50;;;12.00;99.90;;;;;;5031142;28;20483;-66
2022/06/12 04:10:57;;;;;;;19.87;17.17;;;12.00;99.90;;;;;;5031598;28;20472;-66
2022/06/12 04:13:25;;;;;;;18.97;17.20;;;12.00;99.90;;;;;;5030862;28;21038;-66
2022/06/12 04:15:56;;;;;;;18.93;17.33;;;12.00;99.90;;;;;;5031309;28;20492;-66
2022/06/12 04:18:26;;;;;;;19.63;17.83;;;12.00;99.90;;;;;;5031887;28;20486;-66
2022/06/12 04:20:57;;;;;;;18.80;17.00;;;12.10;99.90;;;;;;5031528;28;20965;-65
2022/06/12 04:23:33;;;;;;;18.33;16.63;;;12.10;99.90;;;;;;5031112;28;21334;-66
2022/06/12 04:26:05;;;;;;;22.67;18.00;;;12.10;99.90;;;;;;5031400;28;20450;-67
2022/06/12 04:28:35;;;;;;;18.67;17.23;;;12.10;99.90;;;;;;5030745;28;20463;-66
2022/06/12 04:31:05;;;;;;;21.17;18.97;;;12.10;99.90;;;;;;5030858;28;21947;-66
2022/06/12 04:33:52;;;;;;;24.43;22.33;;;12.20;99.90;;;;;;5029560;28;21009;-66
2022/06/12 04:36:18;;;;;;;18.47;16.67;;;12.30;99.90;;;;;;5030799;28;20780;-66
2022/06/12 04:38:46;;;;;;;26.70;23.17;;;12.40;99.90;;;;;;5031465;28;20471;-67
2022/06/12 04:41:21;;;;;;;27.43;21.50;;;12.50;99.90;;;;;;5029262;28;20464;-65
2022/06/12 04:43:49;;;;;;;26.93;24.00;;;12.60;99.90;;;;;;5030477;28;20859;-66
2022/06/12 04:46:16;;;;;;;25.30;22.67;;;12.70;99.90;;;;;;5030778;28;20577;-66
2022/06/12 04:48:47;;;;;;;24.80;19.87;;;12.80;99.90;;;;;;5031089;28;20471;-66
2022/06/12 04:51:14;;;;;;;25.13;19.27;;;13.00;99.90;;;;;;5030366;28;20459;-66
2022/06/12 04:53:44;;;;;;;22.00;19.80;;;13.20;99.90;;;;;;5029928;28;20461;-66
2022/06/12 04:56:12;;;;;;;23.37;19.93;;;13.30;99.90;;;;;;5029776;28;20482;-67
2022/06/12 04:58:40;;;;;;;24.10;18.60;;;13.50;99.90;;;;;;5030664;28;20467;-65
2022/06/12 05:01:07;;;;;;;27.43;21.33;;;13.60;99.90;;;;;;5029464;28;20472;-66
2022/06/12 05:03:34;;;;;;;27.70;21.93;;;13.60;99.90;;;;;;5029898;28;20452;-67
2022/06/12 05:06:03;;;;;;;22.87;20.60;;;13.70;99.90;;;;;;5030708;28;21003;-67
2022/06/12 05:08:31;;;;;;;25.83;21.67;;;13.80;99.90;;;;;;5029540;28;20478;-66
2022/06/12 05:10:58;;;;;;;23.47;21.07;;;13.90;99.90;;;;;;5030174;28;20463;-67
2022/06/12 05:13:25;;;;;;;26.00;21.73;;;14.00;99.90;;;;;;5029593;28;20471;-66
2022/06/12 05:15:52;;;;;;;34.97;21.20;;;14.00;99.90;;;;;;5029817;28;20480;-66
2022/06/12 05:18:20;;;;;;;37.67;21.47;;;14.10;99.90;;;;;;5029286;28;20545;-66
2022/06/12 05:20:48;;;;;;;34.53;21.80;;;14.20;99.90;;;;;;5030204;28;20470;-67
2022/06/12 05:23:17;;;;;;;20.80;18.30;;;14.40;99.90;;;;;;5029783;28;20482;-66
2022/06/12 05:25:44;;;;;;;20.60;15.87;;;14.50;99.90;;;;;;5029793;28;20459;-67
2022/06/12 05:28:12;;;;;;;20.67;17.97;;;14.50;99.90;;;;;;5029746;28;20507;-65
2022/06/12 05:30:39;;;;;;;21.30;17.77;;;14.50;99.90;;;;;;5029383;28;21013;-66
2022/06/12 05:33:07;;;;;;;24.70;16.13;;;14.50;99.90;;;;;;5029358;28;20823;-66
2022/06/12 05:35:36;;;;;;;24.27;18.43;;;14.50;99.90;;;;;;5029010;28;20473;-67
2022/06/12 05:38:04;;;;;;;24.30;16.83;;;14.60;99.90;;;;;;5029535;28;20495;-66
2022/06/12 05:40:35;;;;;;;28.27;16.80;;;14.70;99.90;;;;;;5029297;28;20456;-66
2022/06/12 05:43:03;;;;;;;20.40;17.30;;;14.80;99.90;;;;;;5028722;28;20463;-68
2022/06/12 05:45:32;;;;;;;16.47;14.40;;;14.80;99.90;;;;;;5028643;28;20513;-66
2022/06/12 05:48:02;;;;;;;22.30;16.07;;;14.90;99.90;;;;;;5029773;28;20464;-66
2022/06/12 05:50:32;;;;;;;23.43;14.07;;;15.00;99.90;;;;;;5028893;28;20970;-66
2022/06/12 05:52:59;;;;;;;18.70;13.70;;;15.10;99.90;;;;;;5029667;28;20831;-66
2022/06/12 05:55:26;;;;;;;15.73;12.83;;;15.10;99.90;;;;;;5028451;28;20474;-67
2022/06/12 05:57:55;;;;;;;14.37;12.93;;;15.10;99.90;;;;;;5028418;28;20502;-67
2022/06/12 06:00:26;;;;;;;18.60;14.43;;;15.20;99.90;;;;;;5027017;28;20475;-67
2022/06/12 06:02:53;;;;;;;14.77;13.20;;;15.30;99.90;;;;;;5025300;28;20472;-67
2022/06/12 06:05:20;;;;;;;14.93;13.63;;;15.30;99.90;;;;;;5026477;28;20459;-66
2022/06/12 06:07:47;;;;;;;16.03;13.43;;;15.40;99.90;;;;;;5027758;28;20506;-67
2022/06/12 06:10:17;;;;;;;16.40;12.80;;;15.50;99.90;;;;;;5026555;28;20476;-67
2022/06/12 06:12:44;;;;;;;21.33;14.43;;;15.60;99.90;;;;;;5027380;28;20456;-67
2022/06/12 06:15:13;;;;;;;13.77;12.60;;;15.70;99.90;;;;;;5025042;28;20694;-67
2022/06/12 06:17:40;;;;;;;13.77;12.57;;;15.70;99.90;;;;;;5026828;28;20491;-67
2022/06/12 06:20:11;;;;;;;16.07;14.00;;;15.70;99.90;;;;;;5025526;28;20464;-67
2022/06/12 06:22:38;;;;;;;15.53;13.40;;;15.80;99.90;;;;;;5027239;28;20470;-67
2022/06/12 06:25:06;;;;;;;13.83;12.73;;;15.90;99.90;;;;;;5027668;28;20472;-67
2022/06/12 06:27:33;;;;;;;12.40;11.40;;;16.00;99.90;;;;;;5027530;28;21247;-67
2022/06/12 06:30:00;;;;;;;13.13;11.87;;;16.20;99.90;;;;;;5026575;28;20562;-67
2022/06/12 06:32:28;;;;;;;13.17;12.07;;;16.20;99.90;;;;;;5027313;28;20748;-66
2022/06/12 06:34:55;;;;;;;12.00;11.07;;;16.30;99.90;;;;;;5025925;28;20471;-67
2022/06/12 06:37:22;;;;;;;12.77;11.37;;;16.40;99.90;;;;;;5027215;28;21819;-67
2022/06/12 06:39:49;;;;;;;14.87;11.30;;;16.40;99.90;;;;;;5027331;28;20851;-67
2022/06/12 06:42:16;;;;;;;12.50;11.60;;;16.40;99.90;;;;;;5026118;28;20467;-66
2022/06/12 06:47:28;;;;;;;11.83;10.83;;;16.60;99.90;;;;;;5030848;28;20474;-67
2022/06/12 06:49:56;;;;;;;11.43;10.73;;;16.60;99.90;;;;;;5030778;28;20471;-67
2022/06/12 06:52:22;;;;;;;12.90;11.80;;;16.60;99.90;;;;;;5031098;28;21121;-67
2022/06/12 06:54:50;;;;;;;14.60;11.30;;;16.70;99.90;;;;;;5031436;28;20491;-67
2022/06/12 06:57:16;;;;;;;12.03;11.03;;;16.90;99.90;;;;;;5030616;28;21135;-67
2022/06/12 06:59:43;;;;;;;11.90;10.80;;;16.90;99.90;;;;;;5031596;28;20550;-66
2022/06/12 07:02:12;;;;;;;11.80;11.00;;;17.00;99.90;;;;;;5030673;28;20452;-67
2022/06/12 07:04:40;;;;;;;12.20;11.20;;;17.00;99.90;;;;;;5031209;28;20470;-67
2022/06/12 07:07:09;;;;;;;13.17;11.77;;;17.00;99.90;;;;;;5030336;28;20481;-66
2022/06/12 07:09:36;;;;;;;11.53;10.83;;;17.00;99.90;;;;;;5030212;28;20502;-67
2022/06/12 07:12:04;;;;;;;11.30;10.60;;;17.10;99.90;;;;;;5029669;28;20565;-68
2022/06/12 07:14:31;;;;;;;11.23;10.23;;;17.30;99.90;;;;;;5030744;28;20455;-67
2022/06/12 07:16:58;;;;;;;11.23;10.47;;;17.50;99.90;;;;;;5029489;28;20483;-67
2022/06/12 07:19:26;;;;;;;11.97;10.97;;;17.50;99.90;;;;;;5030416;28;20467;-67
2022/06/12 07:21:55;;;;;;;11.83;10.90;;;17.50;99.90;;;;;;5029543;28;20458;-68
2022/06/12 07:24:22;;;;;;;14.60;11.60;;;17.60;99.90;;;;;;5030615;28;20831;-67
2022/06/12 07:26:50;;;;;;;10.97;10.37;;;17.70;99.90;;;;;;5029079;28;20502;-68
2022/06/12 07:29:19;;;;;;;12.50;11.70;;;17.90;99.90;;;;;;5030622;28;20823;-66
2022/06/12 07:31:47;;;;;;;12.10;11.27;;;17.90;99.90;;;;;;5028773;28;21091;-66
2022/06/12 07:34:14;;;;;;;13.10;12.07;;;18.00;99.90;;;;;;5041454;28;20463;-67
2022/06/12 07:36:45;;;;;;;13.17;11.53;;;18.10;99.90;;;;;;5060470;28;20538;-68
2022/06/12 07:39:16;;;;;;;11.93;11.10;;;18.20;99.90;;;;;;5041900;28;20487;-66
2022/06/12 07:41:44;;;;;;;21.03;12.47;;;18.20;99.90;;;;;;5029745;28;20989;-67
2022/06/12 07:44:14;;;;;;;11.50;10.60;;;18.20;99.90;;;;;;5029199;28;20470;-67
2022/06/12 07:46:41;;;;;;;12.37;11.53;;;18.30;99.90;;;;;;5031216;28;20524;-67
2022/06/12 07:49:08;;;;;;;12.30;11.50;;;18.40;99.90;;;;;;5029744;28;20462;-67
2022/06/12 07:51:35;;;;;;;13.13;12.20;;;18.50;99.90;;;;;;5029590;28;20467;-67
2022/06/12 07:54:02;;;;;;;11.83;11.23;;;18.40;99.90;;;;;;5029991;28;20817;-68
2022/06/12 07:56:30;;;;;;;12.83;11.77;;;18.50;99.90;;;;;;5029898;28;20923;-67
2022/06/12 07:58:57;;;;;;;12.60;11.90;;;18.70;99.90;;;;;;5029085;28;20491;-68
2022/06/12 08:01:28;;;;;;;12.60;11.60;;;19.00;99.90;;;;;;5028939;28;20455;-68
2022/06/12 08:03:55;;;;;;;12.13;11.43;;;19.30;99.90;;;;;;5029205;28;22459;-69
2022/06/12 08:06:23;;;;;;;13.50;12.30;;;19.80;99.90;;;;;;5029370;28;20459;-67
2022/06/12 08:08:50;;;;;;;13.17;12.40;;;20.40;99.90;;;;;;5027995;28;20918;-68
2022/06/12 08:11:18;;;;;;;12.60;11.50;;;21.00;99.90;;;;;;5026407;28;20843;-67
2022/06/12 08:13:46;;;;;;;12.83;12.00;;;21.70;99.90;;;;;;5027978;28;20815;-68
2022/06/12 08:16:12;;;;;;;14.70;13.40;;;22.10;99.90;;;;;;5031564;28;20502;-67
2022/06/12 08:18:39;;;;;;;13.07;12.07;;;22.10;99.90;;;;;;5050436;28;20492;-67
2022/06/12 08:21:09;;;;;;;13.53;12.63;;;22.60;99.90;;;;;;5051024;28;20468;-67
2022/06/12 08:23:42;;;;;;;13.90;12.90;;;22.90;99.90;;;;;;5051541;28;20879;-68
2022/06/12 08:26:12;;;;;;;15.00;13.33;;;23.00;99.90;;;;;;5029640;28;20774;-68
2022/06/12 08:28:42;;;;;;;13.70;12.80;;;23.40;99.90;;;;;;5029579;28;20486;-67
2022/06/12 08:31:13;;;;;;;13.97;12.87;;;23.20;99.70;;;;;;5027761;28;20475;-68
2022/06/12 08:33:44;;;;;;;14.60;13.27;;;23.20;99.40;;;;;;5028385;28;21009;-68
2022/06/12 08:36:13;;;;;;;14.70;13.10;;;23.00;99.90;;;;;;5027315;28;20986;-68
2022/06/12 08:38:40;;;;;;;13.23;12.03;;;23.40;98.70;;;;;;5027885;28;20498;-68
2022/06/12 08:41:13;;;;;;;15.00;13.40;;;23.10;98.40;;;;;;5049471;28;20491;-67
2022/06/12 08:43:46;;;;;;;13.57;12.60;;;23.40;98.80;;;;;;5051494;28;20830;-67
2022/06/12 08:46:21;;;;;;;14.87;13.50;;;23.70;99.30;;;;;;5052749;28;20460;-68
2022/06/12 08:48:55;;;;;;;14.20;12.90;;;24.00;97.60;;;;;;5028766;28;21019;-67
2022/06/12 08:51:28;;;;;;;14.00;12.97;;;24.00;97.30;;;;;;5028015;28;20969;-68
2022/06/12 08:54:01;;;;;;;14.57;13.23;;;23.70;97.50;;;;;;5028778;28;20457;-68
2022/06/12 08:56:35;;;;;;;15.77;14.23;;;23.60;98.10;;;;;;5028200;28;20978;-68
2022/06/12 08:59:09;;;;;;;15.00;13.37;;;24.00;97.90;;;;;;5028683;28;20491;-67
2022/06/12 09:01:52;;;;;;;22.87;13.77;;;24.30;98.00;;;;;;5027846;28;21164;-68
2022/06/12 09:04:23;;;;;;;15.60;14.17;;;24.40;97.10;;;;;;5028511;28;20958;-68
2022/06/12 09:06:58;;;;;;;14.80;13.60;;;24.60;96.80;;;;;;5027484;28;20463;-67
2022/06/12 09:09:31;;;;;;;15.33;14.10;;;25.00;96.60;;;;;;5026944;28;20490;-67
2022/06/12 09:12:05;;;;;;;16.80;14.63;;;25.40;95.20;;;;;;5026741;28;20474;-68
2022/06/12 09:14:54;;;;;;;14.77;13.47;;;25.50;94.60;;;;;;5027925;28;20796;-68
2022/06/12 09:17:35;;;;;;;14.57;13.47;;;25.40;94.50;;;;;;5018101;28;20490;-68
2022/06/12 09:20:11;;;;;;;15.17;13.93;;;25.60;95.50;;;;;;5026190;28;20460;-68
2022/06/12 09:22:47;;;;;;;14.57;13.53;;;25.00;95.30;;;;;;5026887;28;20764;-68
2022/06/12 09:25:20;;;;;;;15.23;13.93;;;25.30;96.10;;;;;;5053117;28;20981;-68
2022/06/12 09:27:55;;;;;;;15.47;14.00;;;25.00;95.60;;;;;;5056318;28;20560;-68
2022/06/12 09:30:26;;;;;;;15.23;14.07;;;25.80;94.20;;;;;;5050713;28;20563;-67
2022/06/12 09:33:04;;;;;;;16.37;14.97;;;26.30;93.50;;;;;;5042178;28;20456;-68
2022/06/12 09:35:44;;;;;;;15.67;14.50;;;26.00;93.90;;;;;;5021713;28;20458;-68
2022/06/12 09:38:28;;;;;;;15.83;14.43;;;25.80;93.70;;;;;;5022597;28;20933;-68
2022/06/12 09:41:10;;;;;;;15.33;14.10;;;25.80;94.00;;;;;;5019962;28;20460;-68
2022/06/12 09:43:49;;;;;;;15.83;14.10;;;26.40;93.40;;;;;;5023324;28;20460;-68
2022/06/12 09:46:34;;;;;;;15.13;13.93;;;26.50;93.10;;;;;;5022572;28;20467;-68
2022/06/12 09:49:19;;;;;;;16.27;14.70;;;26.80;92.80;;;;;;5022494;28;21006;-68
2022/06/12 09:52:00;;;;;;;15.67;14.10;;;26.70;91.50;;;;;;5021869;28;20464;-68
2022/06/12 09:54:51;;;;;;;15.33;13.93;;;26.70;91.60;;;;;;5022736;28;20958;-68
2022/06/12 09:57:30;;;;;;;15.73;14.13;;;27.20;90.70;;;;;;5018065;28;22094;-68
2022/06/12 10:00:03;;;;;;;15.77;14.43;;;26.80;91.20;;;;;;5022628;28;20887;-69
2022/06/12 10:02:36;;;;;;;15.20;14.00;;;26.70;91.30;;;;;;5022669;28;20908;-68
2022/06/12 10:05:10;;;;;;;15.10;14.00;;;27.00;91.80;;;;;;5021312;28;20481;-68
2022/06/12 10:07:44;;;;;;;14.63;13.30;;;27.00;90.80;;;;;;5021253;28;20488;-69
2022/06/12 10:10:20;;;;;;;15.30;14.10;;;27.40;89.10;;;;;;5023402;28;20954;-69
2022/06/12 10:12:51;;;;;;;15.40;14.20;;;27.20;90.00;;;;;;5027811;28;20462;-68
2022/06/12 10:15:23;;;;;;;15.27;13.83;;;27.50;89.90;;;;;;5026802;28;20609;-69
2022/06/12 10:17:56;;;;;;;15.07;13.90;;;27.70;86.40;;;;;;5024842;28;20498;-68
2022/06/12 10:20:29;;;;;;;15.43;14.00;;;28.20;89.00;;;;;;5025875;28;21642;-68
2022/06/12 10:22:57;;;;;;;15.67;14.27;;;28.20;82.70;;;;;;5026096;28;20936;-69
2022/06/12 10:25:28;;;;;;;15.23;14.03;;;28.40;86.70;;;;;;5024580;28;20991;-69
2022/06/12 10:27:59;;;;;;;14.67;13.63;;;28.30;83.70;;;;;;5026513;28;20517;-68
2022/06/12 10:30:31;;;;;;;15.07;13.60;;;28.40;83.50;;;;;;5056578;28;20550;-68
2022/06/12 10:33:08;;;;;;;15.80;14.60;;;28.90;86.50;;;;;;5048972;28;20476;-68
2022/06/12 10:35:47;;;;;;;15.50;14.13;;;29.20;78.80;;;;;;5030532;28;20462;-68
2022/06/12 10:38:14;;;;;;;15.23;13.93;;;28.10;79.80;;;;;;5028406;28;20521;-69
2022/06/12 10:40:48;;;;;;;15.50;14.30;;;27.90;80.20;;;;;;5054069;28;20475;-69
2022/06/12 10:43:25;;;;;;;15.20;13.73;;;28.20;83.20;;;;;;5051640;28;20458;-69
2022/06/12 10:46:00;;;;;;;14.47;13.37;;;28.40;82.80;;;;;;5048307;28;20745;-69
2022/06/12 10:48:30;;;;;;;15.77;14.40;;;27.40;86.50;;;;;;5023081;28;20531;-68
2022/06/12 10:51:00;;;;;;;15.63;14.00;;;27.40;84.70;;;;;;5022760;28;20501;-68
2022/06/12 10:53:29;;;;;;;15.03;13.63;;;27.30;83.10;;;;;;5022024;28;20456;-68
2022/06/12 10:56:02;;;;;;;14.47;13.30;;;27.50;81.00;;;;;;5033132;28;20452;-68
2022/06/12 10:59:00;;;;;;;14.60;13.43;;;27.60;81.70;;;;;;5036687;28;20478;-69
2022/06/12 11:01:37;;;;;;;14.97;13.57;;;28.20;80.20;;;;;;5022827;28;20485;-68
2022/06/12 11:04:15;;;;;;;15.07;13.87;;;28.60;80.30;;;;;;5023755;28;20777;-68
2022/06/12 11:06:51;;;;;;;15.50;14.20;;;29.10;75.00;;;;;;5023438;28;20474;-69
2022/06/12 11:09:30;;;;;;;16.13;14.60;;;28.70;72.60;;;;;;5023341;28;20491;-69
2022/06/12 11:12:09;;;;;;;14.83;13.50;;;27.70;75.70;;;;;;5022961;28;20459;-69
2022/06/12 11:14:48;;;;;;;14.53;13.30;;;27.80;77.80;;;;;;5023617;28;20554;-69
2022/06/12 11:17:36;;;;;;;15.70;13.47;;;27.50;77.10;;;;;;5022660;28;21110;-68
2022/06/12 11:20:16;;;;;;;15.17;14.00;;;27.70;77.90;;;;;;5022853;28;20447;-69
2022/06/12 11:22:55;;;;;;;15.30;14.00;;;27.30;75.20;;;;;;5022910;28;20467;-69
2022/06/12 11:25:37;;;;;;;15.03;14.00;;;26.50;81.40;;;;;;5023219;28;20471;-69
2022/06/12 11:28:18;;;;;;;15.27;14.20;;;26.70;83.90;;;;;;5023607;28;20476;-68
2022/06/12 11:30:56;;;;;;;14.70;13.67;;;26.80;79.80;;;;;;5022293;28;20474;-69
2022/06/12 11:33:47;;;;;;;15.00;13.80;;;26.60;82.80;;;;;;5025517;28;20522;-69
2022/06/12 11:36:21;;;;;;;16.00;14.20;;;26.50;83.90;;;;;;5026822;28;20460;-69
2022/06/12 11:39:12;;;;;;;14.50;13.20;;;27.10;81.80;;;;;;5043209;28;20845;-68
2022/06/12 11:41:51;;;;;;;14.17;13.10;;;26.60;80.00;;;;;;5058871;28;20463;-68
2022/06/12 11:44:32;;;;;;;14.97;13.67;;;26.80;77.00;;;;;;5046636;28;20467;-68
2022/06/12 11:47:07;;;;;;;15.73;14.27;;;27.50;77.30;;;;;;5040365;28;20508;-69
2022/06/12 11:49:44;;;;;;;14.03;13.00;;;28.40;73.90;;;;;;5025766;28;20486;-68
2022/06/12 11:52:21;;;;;;;14.27;13.37;;;28.90;74.40;;;;;;5026567;28;20459;-69
2022/06/12 11:55:17;;;;;;;15.20;13.77;;;29.50;72.60;;;;;;5027123;28;20829;-69
2022/06/12 11:58:00;;;;;;;15.60;14.40;;;29.80;72.20;;;;;;5026910;28;20467;-68
2022/06/12 12:00:35;;;;;;;14.20;13.07;;;29.70;72.10;;;;;;5025794;28;20563;-69
2022/06/12 12:03:37;;;;;;;14.17;12.97;;;28.60;72.70;;;;;;5025612;28;20462;-69
2022/06/12 12:06:18;;;;;;;15.47;14.07;;;28.40;74.50;;;;;;5024046;28;20976;-70
2022/06/12 12:09:03;;;;;;;15.50;14.33;;;28.80;70.60;;;;;;5023295;28;20992;-69
2022/06/12 12:11:34;;;;;;;13.80;12.80;;;29.30;70.50;;;;;;5022599;28;20795;-69
2022/06/12 12:14:04;;;;;;;14.83;13.50;;;29.50;72.10;;;;;;5025138;28;20517;-69
2022/06/12 12:16:36;;;;;;;14.63;13.53;;;29.50;70.80;;;;;;5026340;28;20494;-69
2022/06/12 12:19:07;;;;;;;14.40;13.40;;;28.80;70.00;;;;;;5025667;28;20541;-69
2022/06/12 12:21:39;;;;;;;15.40;13.93;;;28.10;72.60;;;;;;5025907;28;20470;-69
2022/06/12 12:24:08;;;;;;;15.10;14.00;;;28.20;70.70;;;;;;5024635;28;20489;-69
2022/06/12 12:26:40;;;;;;;15.80;14.40;;;28.80;68.70;;;;;;5024609;28;20839;-69
2022/06/12 12:29:11;;;;;;;15.40;14.40;;;30.00;67.90;;;;;;5026165;28;21350;-69
2022/06/12 12:31:39;;;;;;;15.37;14.33;;;30.80;65.30;;;;;;5023824;28;20828;-69
2022/06/12 12:34:08;;;;;;;15.07;14.00;;;31.20;64.60;;;;;;5022544;28;20840;-69
2022/06/12 12:42:25;;;;;;;14.23;12.93;;;28.40;68.00;;;;;;5024654;28;20509;-69
2022/06/12 12:44:52;;;;;;;15.47;13.93;;;28.90;64.10;;;;;;5024698;28;20455;-69
2022/06/12 12:47:21;;;;;;;14.10;13.13;;;29.60;65.00;;;;;;5024756;28;21211;-69
2022/06/12 12:49:48;;;;;;;15.17;14.00;;;29.20;63.50;;;;;;5023589;28;20493;-69
2022/06/12 12:52:17;;;;;;;15.37;13.87;;;29.80;64.40;;;;;;5024023;28;20456;-69
2022/06/12 12:54:51;;;;;;;14.77;13.57;;;30.90;61.40;;;;;;5022752;28;21100;-69
2022/06/12 12:57:33;;;;;;;13.90;13.00;;;31.60;58.20;;;;;;5022020;28;20486;-69
2022/06/12 13:00:00;;;;;;;14.33;13.10;;;31.90;56.80;;;;;;5023184;28;20475;-68
2022/06/12 13:02:30;;;;;;;15.20;13.70;;;32.00;57.50;;;;;;5022785;28;20520;-69
2022/06/12 13:04:59;;;;;;;14.77;13.47;;;31.80;58.70;;;;;;5020918;28;20468;-69
2022/06/12 13:07:51;;;;;;;14.73;13.63;;;31.60;56.80;;;;;;5022473;28;20475;-69